Time;durP1;ratioP1;P1;durP2;ratioP2;P2;SDS_P1;SDS_P2;PMS_P1;PMS_P2;Temp;Humidity;BMP_temperature;BMP_pressure;BME280_temperature;BME280_humidity;BME280_pressure;Samples;Min_cycle;Max_cycle;Signal;HPM_P1;HPM_P2
2021/07/24 00:01:25;;;;;;;17.63;15.60;;;;;;;;;;5094798;28;20051;-65
2021/07/24 00:03:50;;;;;;;17.38;15.43;;;;;;;;;;5092007;28;20081;-65
2021/07/24 00:06:16;;;;;;;20.13;14.63;;;;;;;;;;5094292;28;20419;-65
2021/07/24 00:08:41;;;;;;;18.10;15.80;;;;;;;;;;5093947;28;20033;-66
2021/07/24 00:11:07;;;;;;;18.38;16.55;;;;;;;;;;5098978;28;20382;-66
2021/07/24 00:13:33;;;;;;;17.70;15.45;;;;;;;;;;5091207;28;20117;-65
2021/07/24 00:15:58;;;;;;;17.45;15.20;;;;;;;;;;5094375;28;20070;-65
2021/07/24 00:18:23;;;;;;;17.40;15.57;;;;;;;;;;5097982;28;20043;-65
2021/07/24 00:20:49;;;;;;;17.67;15.43;;;;;;;;;;5094060;28;20108;-65
2021/07/24 00:23:14;;;;;;;19.05;15.82;;;;;;;;;;5091728;28;20067;-66
2021/07/24 00:25:40;;;;;;;18.05;15.30;;;;;;;;;;5093249;28;20059;-65
2021/07/24 00:28:06;;;;;;;17.83;15.70;;;;;;;;;;5093952;28;20456;-65
2021/07/24 00:30:31;;;;;;;18.02;15.75;;;;;;;;;;5093602;28;20032;-65
2021/07/24 00:32:56;;;;;;;18.02;15.30;;;;;;;;;;5094561;28;20383;-67
2021/07/24 00:35:21;;;;;;;18.70;15.13;;;;;;;;;;5090592;28;20251;-65
2021/07/24 00:37:47;;;;;;;16.58;14.82;;;;;;;;;;5094081;28;20077;-65
2021/07/24 00:40:16;;;;;;;18.50;15.73;;;;;;;;;;5093721;28;20028;-65
2021/07/24 00:42:43;;;;;;;18.85;14.88;;;;;;;;;;5093920;28;20031;-65
2021/07/24 00:45:11;;;;;;;16.35;14.57;;;;;;;;;;5090387;28;20025;-66
2021/07/24 00:47:40;;;;;;;17.20;14.77;;;;;;;;;;5094219;28;20032;-65
2021/07/24 00:50:10;;;;;;;16.40;14.70;;;;;;;;;;5093411;28;20069;-65
2021/07/24 00:52:39;;;;;;;17.70;15.70;;;;;;;;;;5093668;28;20119;-66
2021/07/24 00:55:05;;;;;;;16.17;14.48;;;;;;;;;;5090419;28;20032;-66
2021/07/24 00:57:30;;;;;;;17.23;15.43;;;;;;;;;;5093675;28;20028;-64
2021/07/24 00:59:55;;;;;;;19.65;15.50;;;;;;;;;;5092350;28;20016;-65
2021/07/24 01:02:20;;;;;;;15.93;14.23;;;;;;;;;;5092908;28;20031;-65
2021/07/24 01:04:45;;;;;;;17.83;15.20;;;;;;;;;;5088885;28;20027;-65
2021/07/24 01:07:11;;;;;;;17.50;14.45;;;;;;;;;;5093109;28;20066;-65
2021/07/24 01:09:36;;;;;;;15.75;14.18;;;;;;;;;;5093304;28;20515;-65
2021/07/24 01:12:02;;;;;;;17.17;15.07;;;;;;;;;;5093520;28;20024;-64
2021/07/24 01:14:30;;;;;;;16.20;14.50;;;;;;;;;;5089513;28;21110;-65
2021/07/24 01:16:55;;;;;;;16.42;14.73;;;;;;;;;;5093374;28;20463;-65
2021/07/24 01:19:20;;;;;;;16.05;14.43;;;;;;;;;;5092491;28;20100;-64
2021/07/24 01:21:46;;;;;;;16.65;14.95;;;;;;;;;;5093242;28;20102;-65
2021/07/24 01:24:11;;;;;;;17.02;14.35;;;;;;;;;;5089849;28;20020;-65
2021/07/24 01:26:37;;;;;;;17.88;15.90;;;;;;;;;;5092371;28;20095;-65
2021/07/24 01:29:03;;;;;;;16.45;14.70;;;;;;;;;;5091681;28;20024;-65
2021/07/24 01:31:28;;;;;;;19.25;15.30;;;;;;;;;;5092891;28;20024;-65
2021/07/24 01:33:53;;;;;;;17.05;15.23;;;;;;;;;;5082371;28;20074;-65
2021/07/24 01:36:19;;;;;;;16.95;15.10;;;;;;;;;;5091438;28;20012;-65
2021/07/24 01:38:45;;;;;;;16.52;14.82;;;;;;;;;;5092478;28;20020;-64
2021/07/24 01:41:11;;;;;;;15.80;14.15;;;;;;;;;;5092114;28;20371;-65
2021/07/24 01:43:36;;;;;;;17.23;15.43;;;;;;;;;;5089244;28;20053;-65
2021/07/24 01:46:01;;;;;;;17.25;15.43;;;;;;;;;;5088477;28;20448;-65
2021/07/24 01:53:47;;;;;;;17.23;15.45;;;;;;;;;;5089075;28;20467;-65
2021/07/24 01:56:13;;;;;;;17.58;15.63;;;;;;;;;;5092263;28;20012;-65
2021/07/24 01:58:38;;;;;;;17.33;15.55;;;;;;;;;;5092771;28;20016;-65
2021/07/24 02:01:05;;;;;;;16.73;15.02;;;;;;;;;;5091307;28;20391;-65
2021/07/24 02:03:50;;;;;;;17.02;15.27;;;;;;;;;;5089544;28;20050;-65
2021/07/24 02:06:16;;;;;;;19.15;15.68;;;;;;;;;;5090868;28;20173;-65
2021/07/24 02:08:43;;;;;;;17.27;15.48;;;;;;;;;;5092394;28;20028;-65
2021/07/24 02:11:08;;;;;;;18.23;16.33;;;;;;;;;;5091970;28;20052;-65
2021/07/24 02:13:33;;;;;;;16.83;15.05;;;;;;;;;;5089338;28;20580;-65
2021/07/24 02:15:59;;;;;;;16.80;15.10;;;;;;;;;;5092027;28;20391;-65
2021/07/24 02:18:24;;;;;;;17.63;15.70;;;;;;;;;;5092389;28;20016;-65
2021/07/24 02:20:51;;;;;;;17.05;15.38;;;;;;;;;;5092029;28;20070;-65
2021/07/24 02:23:17;;;;;;;16.80;15.05;;;;;;;;;;5090221;28;20424;-65
2021/07/24 02:25:42;;;;;;;17.35;15.35;;;;;;;;;;5091368;28;20030;-66
2021/07/24 02:28:08;;;;;;;16.23;14.63;;;;;;;;;;5091751;28;20466;-66
2021/07/24 02:30:33;;;;;;;17.95;16.05;;;;;;;;;;5092037;28;20024;-65
2021/07/24 02:32:58;;;;;;;17.90;15.18;;;;;;;;;;5092020;28;20047;-64
2021/07/24 02:35:24;;;;;;;16.50;14.80;;;;;;;;;;5089195;28;20048;-66
2021/07/24 02:37:49;;;;;;;18.67;15.13;;;;;;;;;;5092524;28;20012;-65
2021/07/24 02:40:16;;;;;;;17.48;15.65;;;;;;;;;;5091645;28;20114;-65
2021/07/24 02:42:41;;;;;;;19.42;17.35;;;;;;;;;;5091902;28;20110;-64
2021/07/24 02:45:07;;;;;;;19.17;17.17;;;;;;;;;;5088022;28;20107;-65
2021/07/24 02:47:32;;;;;;;18.88;16.58;;;;;;;;;;5091837;28;20103;-65
2021/07/24 02:49:57;;;;;;;18.92;16.90;;;;;;;;;;5091882;28;20024;-65
2021/07/24 02:52:22;;;;;;;21.35;18.67;;;;;;;;;;5092253;28;20048;-65
2021/07/24 02:54:48;;;;;;;20.48;17.92;;;;;;;;;;5088418;28;20020;-65
2021/07/24 02:57:13;;;;;;;19.80;17.70;;;;;;;;;;5091233;28;20417;-65
2021/07/24 02:59:38;;;;;;;19.35;16.38;;;;;;;;;;5090942;28;20028;-64
2021/07/24 03:02:04;;;;;;;18.58;16.48;;;;;;;;;;5091771;28;20020;-64
2021/07/24 03:04:29;;;;;;;18.75;16.20;;;;;;;;;;5088977;28;20070;-64
2021/07/24 03:06:54;;;;;;;20.13;17.98;;;;;;;;;;5091945;28;20031;-65
2021/07/24 03:09:20;;;;;;;21.88;17.33;;;;;;;;;;5091483;28;20487;-65
2021/07/24 03:11:45;;;;;;;20.65;17.77;;;;;;;;;;5091803;28;20020;-65
2021/07/24 03:14:10;;;;;;;22.00;18.17;;;;;;;;;;5087878;28;20138;-64
2021/07/24 03:16:35;;;;;;;23.05;18.45;;;;;;;;;;5091982;28;20111;-64
2021/07/24 03:19:01;;;;;;;21.13;18.80;;;;;;;;;;5096773;28;20020;-64
2021/07/24 03:21:26;;;;;;;20.70;17.90;;;;;;;;;;5091625;28;20109;-64
2021/07/24 03:23:51;;;;;;;21.90;19.45;;;;;;;;;;5088649;28;20383;-65
2021/07/24 03:26:17;;;;;;;21.73;19.10;;;;;;;;;;5091347;28;20118;-64
2021/07/24 03:28:43;;;;;;;21.67;19.48;;;;;;;;;;5080628;28;20051;-65
2021/07/24 03:31:08;;;;;;;20.85;18.73;;;;;;;;;;5090825;28;20496;-65
2021/07/24 03:33:33;;;;;;;22.02;18.92;;;;;;;;;;5088264;28;20016;-65
2021/07/24 03:35:58;;;;;;;22.75;19.38;;;;;;;;;;5090980;28;20020;-65
2021/07/24 03:38:24;;;;;;;22.27;19.88;;;;;;;;;;5091927;28;20020;-65
2021/07/24 03:40:49;;;;;;;21.70;19.17;;;;;;;;;;5091131;28;20016;-65
2021/07/24 03:43:14;;;;;;;20.58;17.88;;;;;;;;;;5087814;28;20067;-65
2021/07/24 03:45:40;;;;;;;23.08;18.50;;;;;;;;;;5090387;28;20103;-65
2021/07/24 03:48:05;;;;;;;19.95;17.85;;;;;;;;;;5091089;28;20031;-64
2021/07/24 03:50:31;;;;;;;20.40;18.20;;;;;;;;;;5091425;28;20430;-64
2021/07/24 03:52:56;;;;;;;19.70;17.60;;;;;;;;;;5092688;28;20048;-65
2021/07/24 03:55:21;;;;;;;20.90;18.58;;;;;;;;;;5091613;28;20045;-65
2021/07/24 03:57:49;;;;;;;20.52;18.38;;;;;;;;;;5094376;28;20045;-65
2021/07/24 04:00:14;;;;;;;20.27;18.17;;;;;;;;;;5093071;28;20027;-65
2021/07/24 04:02:42;;;;;;;20.70;17.92;;;;;;;;;;5095018;28;20016;-65
2021/07/24 04:05:07;;;;;;;20.48;17.60;;;;;;;;;;5091766;28;20134;-65
2021/07/24 04:07:33;;;;;;;23.27;18.95;;;;;;;;;;5094459;28;20107;-64
2021/07/24 04:09:58;;;;;;;20.63;17.70;;;;;;;;;;5094566;28;20093;-64
2021/07/24 04:12:23;;;;;;;20.02;17.65;;;;;;;;;;5094936;28;20024;-63
2021/07/24 04:14:48;;;;;;;19.75;17.67;;;;;;;;;;5091583;28;20056;-63
2021/07/24 04:17:14;;;;;;;18.88;16.88;;;;;;;;;;5094288;28;20062;-64
2021/07/24 04:19:39;;;;;;;19.10;17.13;;;;;;;;;;5094405;28;20486;-63
2021/07/24 04:22:04;;;;;;;19.00;17.02;;;;;;;;;;5094539;28;20074;-64
2021/07/24 04:24:29;;;;;;;19.13;17.13;;;;;;;;;;5091206;28;20020;-64
2021/07/24 04:26:55;;;;;;;20.00;17.77;;;;;;;;;;5094693;28;20047;-65
2021/07/24 04:29:21;;;;;;;19.73;17.60;;;;;;;;;;5091038;28;20039;-64
2021/07/24 04:31:46;;;;;;;19.90;17.02;;;;;;;;;;5087005;28;20402;-64
2021/07/24 04:34:12;;;;;;;19.77;17.17;;;;;;;;;;5089297;28;20024;-65
2021/07/24 04:36:38;;;;;;;18.38;16.52;;;;;;;;;;5094222;28;20028;-65
2021/07/24 04:39:03;;;;;;;18.90;16.90;;;;;;;;;;5093648;28;20035;-65
2021/07/24 04:41:29;;;;;;;20.30;18.17;;;;;;;;;;5093998;28;20095;-65
2021/07/24 04:43:54;;;;;;;19.50;17.50;;;;;;;;;;5091230;28;20104;-65
2021/07/24 04:46:19;;;;;;;19.80;17.15;;;;;;;;;;5094183;28;20106;-64
2021/07/24 04:48:44;;;;;;;19.35;17.23;;;;;;;;;;5093805;28;20034;-65
2021/07/24 04:51:14;;;;;;;18.38;16.55;;;;;;;;;;5093159;28;20102;-64
2021/07/24 04:53:40;;;;;;;18.88;16.23;;;;;;;;;;5091879;28;20065;-64
2021/07/24 04:56:07;;;;;;;19.08;16.65;;;;;;;;;;5111037;28;20101;-65
2021/07/24 04:58:33;;;;;;;19.13;17.10;;;;;;;;;;5093422;28;20091;-65
2021/07/24 05:00:59;;;;;;;19.08;17.08;;;;;;;;;;5093724;28;20016;-64
2021/07/24 05:03:24;;;;;;;18.08;15.65;;;;;;;;;;5090469;28;20415;-65
2021/07/24 05:05:49;;;;;;;19.50;17.38;;;;;;;;;;5093851;28;20498;-64
2021/07/24 05:08:16;;;;;;;19.67;17.30;;;;;;;;;;5093187;28;20024;-64
2021/07/24 05:10:41;;;;;;;18.98;17.02;;;;;;;;;;5091236;28;20020;-65
2021/07/24 05:13:06;;;;;;;18.52;16.58;;;;;;;;;;5092338;28;20379;-65
2021/07/24 05:15:32;;;;;;;18.48;16.58;;;;;;;;;;5092205;28;20023;-65
2021/07/24 05:17:57;;;;;;;18.42;16.50;;;;;;;;;;5093188;28;20020;-65
2021/07/24 05:20:24;;;;;;;19.17;17.27;;;;;;;;;;5093271;28;20016;-64
2021/07/24 05:22:50;;;;;;;18.27;16.48;;;;;;;;;;5093696;28;20383;-65
2021/07/24 05:25:15;;;;;;;17.95;16.15;;;;;;;;;;5090830;28;20016;-65
2021/07/24 05:27:40;;;;;;;18.20;16.30;;;;;;;;;;5092840;28;20012;-65
2021/07/24 05:30:06;;;;;;;17.67;15.38;;;;;;;;;;5078183;28;20024;-64
2021/07/24 05:32:32;;;;;;;15.98;14.38;;;;;;;;;;5092823;28;20372;-64
2021/07/24 05:34:57;;;;;;;16.45;14.82;;;;;;;;;;5090631;28;20016;-65
2021/07/24 05:37:22;;;;;;;17.65;15.82;;;;;;;;;;5093101;28;20405;-64
2021/07/24 05:39:48;;;;;;;16.15;14.55;;;;;;;;;;5093608;28;20528;-64
2021/07/24 05:42:13;;;;;;;16.95;15.02;;;;;;;;;;5091279;28;20047;-63
2021/07/24 05:44:38;;;;;;;14.95;13.38;;;;;;;;;;5089837;28;20091;-64
2021/07/24 05:47:04;;;;;;;15.23;13.63;;;;;;;;;;5092722;28;20107;-65
2021/07/24 05:49:30;;;;;;;14.38;12.88;;;;;;;;;;5092969;28;20024;-65
2021/07/24 05:51:55;;;;;;;14.82;13.32;;;;;;;;;;5093014;28;20028;-65
2021/07/24 05:54:22;;;;;;;17.13;13.52;;;;;;;;;;5093146;28;20039;-64
2021/07/24 05:56:48;;;;;;;13.70;12.30;;;;;;;;;;5092669;28;20023;-65
2021/07/24 05:59:13;;;;;;;13.85;12.38;;;;;;;;;;5092216;28;20012;-65
2021/07/24 06:01:38;;;;;;;13.05;11.68;;;;;;;;;;5092209;28;20020;-65
2021/07/24 06:04:04;;;;;;;13.45;12.00;;;;;;;;;;5089407;28;20051;-65
2021/07/24 06:06:29;;;;;;;12.55;11.35;;;;;;;;;;5087953;28;20582;-66
2021/07/24 06:08:54;;;;;;;13.73;12.35;;;;;;;;;;5077999;28;20016;-65
2021/07/24 06:11:19;;;;;;;15.57;12.35;;;;;;;;;;5095798;28;20095;-64
2021/07/24 06:13:45;;;;;;;15.13;12.05;;;;;;;;;;5088923;28;20020;-65
2021/07/24 06:16:10;;;;;;;13.02;11.82;;;;;;;;;;5079085;28;20032;-64
2021/07/24 06:18:35;;;;;;;12.73;11.50;;;;;;;;;;5078488;28;20100;-65
2021/07/24 06:21:01;;;;;;;12.50;11.25;;;;;;;;;;5076194;28;20056;-64
2021/07/24 06:23:26;;;;;;;13.20;11.63;;;;;;;;;;5076099;28;20016;-64
2021/07/24 06:25:51;;;;;;;13.30;11.57;;;;;;;;;;5080628;28;20107;-65
2021/07/24 06:28:17;;;;;;;13.83;12.33;;;;;;;;;;5077265;28;20020;-64
2021/07/24 06:30:42;;;;;;;15.27;12.63;;;;;;;;;;5082562;28;20270;-65
2021/07/24 06:33:07;;;;;;;14.23;12.65;;;;;;;;;;5082450;28;20025;-64
2021/07/24 06:35:33;;;;;;;14.18;12.10;;;;;;;;;;5081350;28;20387;-64
2021/07/24 06:37:58;;;;;;;14.90;13.43;;;;;;;;;;5081919;28;20459;-64
2021/07/24 06:40:23;;;;;;;13.65;11.80;;;;;;;;;;5083390;28;20518;-65
2021/07/24 06:42:49;;;;;;;15.43;12.15;;;;;;;;;;5081737;28;20029;-65
2021/07/24 06:45:14;;;;;;;13.68;12.20;;;;;;;;;;5069785;28;20028;-65
2021/07/24 06:47:39;;;;;;;12.50;10.98;;;;;;;;;;5072150;28;20112;-65
2021/07/24 06:50:05;;;;;;;12.73;11.43;;;;;;;;;;5085338;28;20031;-64
2021/07/24 06:52:30;;;;;;;11.80;10.63;;;;;;;;;;5081020;28;20059;-64
2021/07/24 06:54:55;;;;;;;12.95;10.63;;;;;;;;;;5081227;28;20012;-64
2021/07/24 06:57:20;;;;;;;11.10;10.00;;;;;;;;;;5082896;28;20436;-64
2021/07/24 06:59:46;;;;;;;10.68;9.57;;;;;;;;;;5091410;28;20363;-64
2021/07/24 07:02:11;;;;;;;12.23;10.93;;;;;;;;;;5091708;28;20016;-64
2021/07/24 07:04:37;;;;;;;12.50;11.00;;;;;;;;;;5099367;28;20712;-64
2021/07/24 07:07:03;;;;;;;10.85;9.75;;;;;;;;;;5103795;28;20088;-63
2021/07/24 07:09:28;;;;;;;10.95;9.43;;;;;;;;;;5103257;28;20027;-64
2021/07/24 07:11:59;;;;;;;9.90;8.80;;;;;;;;;;5083701;28;20019;-63
2021/07/24 07:14:25;;;;;;;9.63;8.63;;;;;;;;;;5090453;28;20536;-64
2021/07/24 07:16:50;;;;;;;9.98;8.60;;;;;;;;;;5112237;28;20061;-66
2021/07/24 07:19:16;;;;;;;9.63;8.68;;;;;;;;;;5091958;28;20020;-63
2021/07/24 07:21:41;;;;;;;10.38;9.23;;;;;;;;;;5088822;28;20099;-65
2021/07/24 07:24:07;;;;;;;13.52;10.65;;;;;;;;;;5089187;28;20016;-64
2021/07/24 07:26:33;;;;;;;10.55;8.75;;;;;;;;;;5108338;28;20148;-64
2021/07/24 07:29:02;;;;;;;9.45;8.48;;;;;;;;;;5103410;28;20439;-65
2021/07/24 07:31:28;;;;;;;9.52;7.88;;;;;;;;;;5094819;28;20069;-65
2021/07/24 07:33:53;;;;;;;9.55;8.38;;;;;;;;;;5092586;28;20024;-65
2021/07/24 07:36:18;;;;;;;8.27;7.53;;;;;;;;;;5094794;28;20103;-65
2021/07/24 07:38:43;;;;;;;8.70;7.40;;;;;;;;;;5103760;28;20027;-65
2021/07/24 07:41:08;;;;;;;10.38;7.80;;;;;;;;;;5096172;28;20301;-65
2021/07/24 07:43:34;;;;;;;8.95;7.95;;;;;;;;;;5092266;28;20357;-65
2021/07/24 07:45:59;;;;;;;9.30;8.10;;;;;;;;;;5095308;28;20382;-64
2021/07/24 07:48:24;;;;;;;11.55;8.55;;;;;;;;;;5080980;28;20320;-64
2021/07/24 07:50:50;;;;;;;8.48;7.72;;;;;;;;;;5094625;28;20020;-64
2021/07/24 07:53:16;;;;;;;9.25;8.35;;;;;;;;;;5092841;28;20086;-64
2021/07/24 07:55:41;;;;;;;10.00;8.98;;;;;;;;;;5094862;28;20024;-64
2021/07/24 07:58:10;;;;;;;9.73;8.47;;;;;;;;;;5094589;28;20116;-64
2021/07/24 08:00:36;;;;;;;8.90;7.90;;;;;;;;;;5094353;28;20281;-64
2021/07/24 08:03:01;;;;;;;9.10;8.05;;;;;;;;;;5098200;28;20020;-65
2021/07/24 08:05:26;;;;;;;9.43;8.10;;;;;;;;;;5082660;28;20055;-64
2021/07/24 08:07:51;;;;;;;8.90;8.00;;;;;;;;;;5091985;28;20121;-65
2021/07/24 08:10:19;;;;;;;10.07;9.00;;;;;;;;;;5094639;28;20262;-65
2021/07/24 08:12:44;;;;;;;9.38;8.43;;;;;;;;;;5099591;28;20020;-64
2021/07/24 08:15:09;;;;;;;9.73;8.52;;;;;;;;;;5112435;28;20023;-66
2021/07/24 08:17:35;;;;;;;8.93;7.65;;;;;;;;;;5098833;28;20141;-67
2021/07/24 08:20:00;;;;;;;9.00;8.07;;;;;;;;;;5103653;28;20019;-65
2021/07/24 08:22:25;;;;;;;9.13;8.30;;;;;;;;;;5086612;28;20016;-67
2021/07/24 08:24:50;;;;;;;8.80;7.93;;;;;;;;;;5093355;28;20486;-66
2021/07/24 08:27:16;;;;;;;8.02;7.32;;;;;;;;;;5093446;28;20027;-65
2021/07/24 08:29:41;;;;;;;8.43;7.63;;;;;;;;;;5097195;28;20463;-65
2021/07/24 08:32:09;;;;;;;8.47;7.57;;;;;;;;;;5114724;28;20266;-65
2021/07/24 08:34:34;;;;;;;8.63;7.80;;;;;;;;;;5102403;28;20314;-65
2021/07/24 08:37:00;;;;;;;8.20;7.40;;;;;;;;;;5093813;28;20054;-65
2021/07/24 08:39:25;;;;;;;8.73;7.13;;;;;;;;;;5092740;28;20095;-65
2021/07/24 08:41:50;;;;;;;8.57;7.78;;;;;;;;;;5083969;28;20378;-67
2021/07/24 08:44:15;;;;;;;8.10;7.30;;;;;;;;;;5075984;28;20027;-66
2021/07/24 08:46:41;;;;;;;8.02;7.22;;;;;;;;;;5093672;28;20024;-65
2021/07/24 08:49:06;;;;;;;7.88;7.07;;;;;;;;;;5101964;28;20372;-66
2021/07/24 08:51:34;;;;;;;8.80;7.30;;;;;;;;;;5078509;28;20032;-66
2021/07/24 08:54:00;;;;;;;8.23;7.15;;;;;;;;;;5084011;28;20039;-66
2021/07/24 08:56:28;;;;;;;7.47;6.78;;;;;;;;;;5080210;28;20028;-67
2021/07/24 08:58:56;;;;;;;7.32;6.72;;;;;;;;;;5073988;28;20021;-66
2021/07/24 09:01:22;;;;;;;7.15;6.45;;;;;;;;;;5076051;28;20025;-66
2021/07/24 09:03:47;;;;;;;8.75;6.97;;;;;;;;;;5081747;28;20035;-66
2021/07/24 09:06:18;;;;;;;6.35;5.78;;;;;;;;;;5083263;28;20028;-67
2021/07/24 09:08:44;;;;;;;8.20;6.68;;;;;;;;;;5082681;28;20028;-66
2021/07/24 09:11:09;;;;;;;6.47;5.88;;;;;;;;;;5079632;28;20038;-67
2021/07/24 09:13:34;;;;;;;10.03;6.40;;;;;;;;;;5075878;28;20099;-66
2021/07/24 09:16:00;;;;;;;6.63;6.03;;;;;;;;;;5076954;28;20629;-66
2021/07/24 09:18:25;;;;;;;5.70;5.25;;;;;;;;;;5073811;28;20751;-66
2021/07/24 09:20:51;;;;;;;6.15;5.55;;;;;;;;;;5079401;28;20036;-66
2021/07/24 09:23:24;;;;;;;5.30;4.88;;;;;;;;;;5083076;28;20023;-64
2021/07/24 09:25:49;;;;;;;5.63;4.88;;;;;;;;;;5073980;28;20391;-64
2021/07/24 09:28:15;;;;;;;5.87;4.83;;;;;;;;;;5082905;28;20020;-65
2021/07/24 09:30:40;;;;;;;5.90;4.93;;;;;;;;;;5070664;28;20289;-65
2021/07/24 09:33:15;;;;;;;5.45;4.95;;;;;;;;;;5075147;28;20285;-64
2021/07/24 09:35:43;;;;;;;5.80;5.30;;;;;;;;;;5085716;28;20016;-65
2021/07/24 09:38:14;;;;;;;5.63;5.13;;;;;;;;;;5081052;28;20020;-65
2021/07/24 09:40:40;;;;;;;5.13;4.72;;;;;;;;;;5084777;28;20078;-65
2021/07/24 09:43:24;;;;;;;4.70;4.38;;;;;;;;;;5080275;28;20471;-64
2021/07/24 09:46:06;;;;;;;7.32;5.30;;;;;;;;;;5087399;28;20028;-65
2021/07/24 09:48:31;;;;;;;5.65;5.15;;;;;;;;;;5078493;28;20303;-66
2021/07/24 09:50:57;;;;;;;6.03;4.50;;;;;;;;;;5079958;28;20024;-64
2021/07/24 09:53:35;;;;;;;6.40;4.95;;;;;;;;;;5088761;28;20254;-66
2021/07/24 09:56:00;;;;;;;5.50;5.00;;;;;;;;;;5073964;28;20048;-65
2021/07/24 09:58:26;;;;;;;5.37;4.90;;;;;;;;;;5080488;28;20060;-65
2021/07/24 10:01:00;;;;;;;5.53;5.03;;;;;;;;;;5081488;28;20298;-67
2021/07/24 10:03:27;;;;;;;5.57;5.18;;;;;;;;;;5075563;28;20048;-65
2021/07/24 10:05:52;;;;;;;5.40;4.90;;;;;;;;;;5085519;28;20028;-64
2021/07/24 10:08:17;;;;;;;5.13;4.72;;;;;;;;;;5084865;28;20261;-66
2021/07/24 10:10:43;;;;;;;5.93;5.32;;;;;;;;;;5072121;28;20032;-65
2021/07/24 10:13:12;;;;;;;5.60;5.10;;;;;;;;;;5074249;28;20023;-66
2021/07/24 10:15:39;;;;;;;7.68;5.00;;;;;;;;;;5076709;28;20021;-66
2021/07/24 10:18:05;;;;;;;6.20;5.60;;;;;;;;;;5073052;28;20059;-65
2021/07/24 10:20:33;;;;;;;6.60;6.00;;;;;;;;;;5076624;28;20016;-65
2021/07/24 10:22:58;;;;;;;5.60;5.10;;;;;;;;;;5071982;28;20025;-66
2021/07/24 10:25:24;;;;;;;5.37;4.87;;;;;;;;;;5079965;28;20020;-66
2021/07/24 10:27:50;;;;;;;5.32;4.82;;;;;;;;;;5084634;28;20016;-65
2021/07/24 10:30:16;;;;;;;5.80;5.25;;;;;;;;;;5073513;28;20023;-66
2021/07/24 10:32:42;;;;;;;6.22;4.82;;;;;;;;;;5084475;28;20020;-66
2021/07/24 10:35:08;;;;;;;5.85;5.03;;;;;;;;;;5069465;28;20023;-66
2021/07/24 10:37:33;;;;;;;6.63;5.20;;;;;;;;;;5072907;28;20016;-66
2021/07/24 10:40:17;;;;;;;5.90;5.32;;;;;;;;;;5092813;28;20043;-66
2021/07/24 10:42:51;;;;;;;6.40;5.77;;;;;;;;;;5091024;28;20024;-65
2021/07/24 10:45:31;;;;;;;4.57;4.17;;;;;;;;;;5080160;28;20088;-65
2021/07/24 10:48:14;;;;;;;5.57;5.18;;;;;;;;;;5087492;28;20020;-65
2021/07/24 10:50:57;;;;;;;6.75;4.47;;;;;;;;;;5083833;28;20028;-64
2021/07/24 10:53:28;;;;;;;5.82;5.15;;;;;;;;;;5089976;28;20281;-65
2021/07/24 10:55:55;;;;;;;7.68;5.18;;;;;;;;;;5076402;28;20019;-65
2021/07/24 10:58:22;;;;;;;4.80;4.40;;;;;;;;;;5084831;28;20016;-65
2021/07/24 11:00:51;;;;;;;5.57;5.07;;;;;;;;;;5087800;28;20020;-65
2021/07/24 11:03:29;;;;;;;5.07;4.70;;;;;;;;;;5091534;28;20020;-66
2021/07/24 11:05:55;;;;;;;5.07;4.60;;;;;;;;;;5090146;28;20058;-65
2021/07/24 11:08:40;;;;;;;5.30;4.90;;;;;;;;;;5094481;28;20044;-66
2021/07/24 11:11:08;;;;;;;4.95;4.65;;;;;;;;;;5092493;28;20012;-65
2021/07/24 11:13:46;;;;;;;5.18;4.78;;;;;;;;;;5092143;28;20306;-65
2021/07/24 11:16:12;;;;;;;5.35;4.65;;;;;;;;;;5093739;28;20062;-66
2021/07/24 11:18:37;;;;;;;5.55;5.03;;;;;;;;;;5083620;28;20020;-65
2021/07/24 11:21:02;;;;;;;5.50;5.00;;;;;;;;;;5083733;28;20113;-66
2021/07/24 11:23:27;;;;;;;5.90;5.13;;;;;;;;;;5088055;28;20277;-66
2021/07/24 11:25:59;;;;;;;5.23;4.73;;;;;;;;;;5085544;28;20043;-66
2021/07/24 11:28:24;;;;;;;5.22;4.72;;;;;;;;;;5087761;28;20020;-66
2021/07/24 11:31:00;;;;;;;5.43;4.85;;;;;;;;;;5089566;28;20016;-66
2021/07/24 11:33:27;;;;;;;5.55;5.15;;;;;;;;;;5079304;28;20527;-66
2021/07/24 11:35:57;;;;;;;5.13;4.70;;;;;;;;;;5080701;28;20032;-65
2021/07/24 11:38:23;;;;;;;5.18;4.70;;;;;;;;;;5087086;28;20024;-65
2021/07/24 11:40:59;;;;;;;5.40;5.00;;;;;;;;;;5074118;28;20020;-65
2021/07/24 11:43:24;;;;;;;5.85;5.22;;;;;;;;;;5084042;28;20131;-66
2021/07/24 11:45:57;;;;;;;5.20;4.70;;;;;;;;;;5086331;28;20116;-66
2021/07/24 11:48:22;;;;;;;5.55;5.05;;;;;;;;;;5081866;28;20024;-66
2021/07/24 11:50:48;;;;;;;5.53;5.00;;;;;;;;;;5077371;28;20518;-66
2021/07/24 11:53:18;;;;;;;5.38;4.88;;;;;;;;;;5093916;28;20051;-65
2021/07/24 11:55:43;;;;;;;5.22;4.82;;;;;;;;;;5091203;28;20020;-66
2021/07/24 11:58:10;;;;;;;5.93;5.37;;;;;;;;;;5093473;28;20026;-66
2021/07/24 12:00:39;;;;;;;6.30;5.68;;;;;;;;;;5092517;28;20293;-66
2021/07/24 12:03:10;;;;;;;5.53;5.13;;;;;;;;;;5092556;28;20012;-67
2021/07/24 12:05:35;;;;;;;5.90;5.40;;;;;;;;;;5092674;28;20095;-67
2021/07/24 12:08:00;;;;;;;6.77;5.30;;;;;;;;;;5091350;28;20534;-66
2021/07/24 12:10:25;;;;;;;5.90;5.40;;;;;;;;;;5091052;28;20012;-64
2021/07/24 12:12:51;;;;;;;5.78;5.15;;;;;;;;;;5092948;28;20803;-65
2021/07/24 12:15:17;;;;;;;6.72;5.68;;;;;;;;;;5091580;28;20019;-66
2021/07/24 12:17:42;;;;;;;5.68;5.18;;;;;;;;;;5091945;28;20035;-65
2021/07/24 12:20:12;;;;;;;5.40;5.00;;;;;;;;;;5085899;28;20111;-66
2021/07/24 12:22:37;;;;;;;6.47;5.35;;;;;;;;;;5087347;28;20008;-65
2021/07/24 12:25:12;;;;;;;5.47;4.97;;;;;;;;;;5083704;28;20028;-65
2021/07/24 12:27:47;;;;;;;6.20;5.63;;;;;;;;;;5085456;28;20753;-65
2021/07/24 12:30:24;;;;;;;7.13;5.93;;;;;;;;;;5085699;28;20024;-66
2021/07/24 12:32:50;;;;;;;6.18;5.68;;;;;;;;;;5084786;28;20012;-66
2021/07/24 12:35:21;;;;;;;6.70;5.37;;;;;;;;;;5083899;28;20073;-65
2021/07/24 12:37:46;;;;;;;6.68;6.07;;;;;;;;;;5083474;28;20023;-65
2021/07/24 12:40:19;;;;;;;6.30;5.80;;;;;;;;;;5085850;28;20036;-65
2021/07/24 12:42:45;;;;;;;5.88;5.45;;;;;;;;;;5083051;28;20033;-65
2021/07/24 12:45:22;;;;;;;5.72;5.22;;;;;;;;;;5085986;28;20028;-65
2021/07/24 12:47:47;;;;;;;6.18;5.57;;;;;;;;;;5082320;28;20031;-65
2021/07/24 12:50:16;;;;;;;6.07;5.50;;;;;;;;;;5082666;28;21436;-66
2021/07/24 12:52:45;;;;;;;5.40;4.93;;;;;;;;;;5084486;28;20050;-66
2021/07/24 12:55:14;;;;;;;6.28;5.15;;;;;;;;;;5080602;28;20020;-65
2021/07/24 12:57:39;;;;;;;7.20;5.15;;;;;;;;;;5083321;28;20386;-65
2021/07/24 13:00:06;;;;;;;6.35;5.82;;;;;;;;;;5081158;28;20020;-65
2021/07/24 13:02:31;;;;;;;6.43;5.82;;;;;;;;;;5082705;28;20066;-64
2021/07/24 13:04:57;;;;;;;6.13;5.63;;;;;;;;;;5079270;28;20039;-65
2021/07/24 13:07:26;;;;;;;7.60;5.82;;;;;;;;;;5081944;28;20075;-65
2021/07/24 13:09:54;;;;;;;6.10;5.70;;;;;;;;;;5081539;28;20016;-65
2021/07/24 13:12:20;;;;;;;6.60;5.47;;;;;;;;;;5091040;28;20011;-66
2021/07/24 13:14:45;;;;;;;6.03;5.53;;;;;;;;;;5088895;28;20028;-65
2021/07/24 13:17:11;;;;;;;5.67;5.27;;;;;;;;;;5083945;28;20107;-64
2021/07/24 13:19:36;;;;;;;6.13;5.53;;;;;;;;;;5076354;28;20559;-65
2021/07/24 13:22:01;;;;;;;6.10;5.60;;;;;;;;;;5081432;28;20089;-65
2021/07/24 13:24:29;;;;;;;5.90;5.40;;;;;;;;;;5085296;28;20081;-65
2021/07/24 13:29:38;;;;;;;;;;;;;;;;;;5081779;28;20039;-70
2021/07/24 13:32:04;;;;;;;6.43;5.82;;;;;;;;;;5090736;28;19912;-69
2021/07/24 13:34:29;;;;;;;6.20;5.60;;;;;;;;;;5082029;28;20032;-68
2021/07/24 13:36:54;;;;;;;5.90;5.00;;;;;;;;;;5085993;28;20051;-68
2021/07/24 13:39:20;;;;;;;6.17;5.67;;;;;;;;;;5085624;28;20028;-68
2021/07/24 13:41:45;;;;;;;6.67;5.57;;;;;;;;;;5084811;28;20104;-68
2021/07/24 13:44:10;;;;;;;7.23;5.70;;;;;;;;;;5079658;28;20803;-69
2021/07/24 13:46:35;;;;;;;6.20;5.60;;;;;;;;;;5085531;28;20024;-69
2021/07/24 13:49:00;;;;;;;6.80;6.27;;;;;;;;;;5085357;28;20028;-69
2021/07/24 13:51:26;;;;;;;6.30;5.83;;;;;;;;;;5080744;28;20040;-69
2021/07/24 13:53:52;;;;;;;6.07;5.63;;;;;;;;;;5087879;28;20052;-69
2021/07/24 13:56:17;;;;;;;6.20;5.70;;;;;;;;;;5083305;28;20042;-71
2021/07/24 13:58:44;;;;;;;5.95;5.45;;;;;;;;;;5084328;28;20087;-69
2021/07/24 14:01:09;;;;;;;5.80;5.40;;;;;;;;;;5088178;28;20012;-71
2021/07/24 14:03:36;;;;;;;6.63;6.05;;;;;;;;;;5088301;28;20341;-71
2021/07/24 14:06:03;;;;;;;5.65;5.25;;;;;;;;;;5092842;28;20483;-72
2021/07/24 14:08:28;;;;;;;6.10;5.60;;;;;;;;;;5087046;28;20099;-69
2021/07/24 14:10:53;;;;;;;6.90;6.03;;;;;;;;;;5088685;28;20073;-71
2021/07/24 14:13:18;;;;;;;6.32;5.72;;;;;;;;;;5087666;28;20292;-70
2021/07/24 14:15:44;;;;;;;6.47;5.90;;;;;;;;;;5083000;28;20047;-70
2021/07/24 14:18:09;;;;;;;6.47;6.00;;;;;;;;;;5080372;28;20404;-70
2021/07/24 14:20:34;;;;;;;6.70;6.10;;;;;;;;;;5081930;28;20016;-70
2021/07/24 14:22:59;;;;;;;6.63;5.70;;;;;;;;;;5080032;28;20451;-69
2021/07/24 14:25:24;;;;;;;6.73;6.07;;;;;;;;;;5080477;28;20450;-70
2021/07/24 14:27:50;;;;;;;6.00;5.47;;;;;;;;;;5077926;28;20266;-70
2021/07/24 14:30:15;;;;;;;6.40;5.80;;;;;;;;;;5082783;28;20103;-69
2021/07/24 14:32:40;;;;;;;6.00;5.60;;;;;;;;;;5082852;28;20048;-69
2021/07/24 14:35:06;;;;;;;6.13;5.63;;;;;;;;;;5081160;28;20020;-69